グアム の空港の天気 - METARとTAF

グアム国際空港 ( PGUM / GUM ) - グアム ハガニア
飛行場実況気象(Metar)
観測時間05/30 02:54 ChST (05/29 16:54 UTC)
風向・風速東北東 2m/s
視程10km以上
天気現象
なし
気温26.1℃
湿度82%
気圧1013.1hPa
METARPGUM 291654Z 07004KT 10SM CLR 26/23 A2994 RMK AO2 SLP131 T02610228
過去の天気等 Google飛行場航空写真 Wunderground天気予報

過去48時間のMETAR

飛行場予報(TAF)
発表時間: 5/29 22:46 ChST (5/29 12:46 UTC)
予報対象時間: 29日23時 ChST ~ 31日4時 ChST
風向・風速東北東 5m/s
視程10km以上
天気現象周辺でしゅう雨
少しの雲 雲底高度 610m
全天の4割程度の雲 雲底高度 1520m
全天の4割程度の雲 雲底高度 3660m
29日23時 ChST ~ 30日3時 ChST に一時的に
天気現象弱いしゅう雨
全天の4割程度の雲 雲底高度 490m
全天の8割程度の雲 雲底高度 910m
30日4時 ChST から
風向・風速東北東 6m/s
視程10km以上
天気現象周辺でしゅう雨
全天の4割程度の雲 雲底高度 490m
全天の4割程度の雲 雲底高度 1220m
全天の8割程度の雲 雲底高度 3660m
30日4時 ChST ~ 30日8時 ChST に一時的に
視程8050m
天気現象しゅう雨
全天の4割程度の雲 雲底高度 430m
全天の8割程度の雲 雲底高度 760m
PGUM 291246Z 2913/3018 07009KT P6SM VCSH FEW020 SCT050 SCT120
TEMPO 2913/2917 -SHRA SCT016 BKN030
FM291800 07012KT P6SM VCSH SCT016 SCT040 BKN120
TEMPO 2918/2922 5SM SHRA SCT014 BKN025